• Join FlightAware (Why Join?)
  • Login
  • US Flag 
05:33PM EST


 

Airport Tracker/Info


-or-


 

Live Flight TrackerFlight Track Log ✈ JZA7001 ✈ 03-Oct-2013 ✈ CYBG - CYUL

Flight Track Log - Related Links

Times and Time Zones

All times are in EDT time to prevent confusion due to time zone crossing. See the JZA7001 flight status page for this flight to view local times or setup timezone preferences in your user account.

Time Position Orientation Groundspeed Altitude Reporting Facility
EDT Latitude Longitude Course Direction KTS MPH feet Rate Location/Type
04:04PM 48.2500 -71.0500 180° South 150 173 4,800  Level Montreal Center
04:05PM 48.2167 -71.0500 180° South 160 184 6,200 1,440 Climbing Montreal Center
04:06PM 48.1667 -71.0500 180° South 160 184 7,700 1,500 Climbing Montreal Center
04:07PM 48.1167 -71.0500 180° South 170 196 9,300 1,500 Climbing Montreal Center
04:08PM 48.0833 -71.0833 214° Southwest 160 184 10,800 1,500 Climbing Montreal Center
04:09PM 48.0333 -71.0833 180° South 170 196 12,300 1,200 Climbing Montreal Center
04:10PM 47.9833 -71.1000 193° South 180 207 13,200 960 Climbing Montreal Center
04:11PM 47.9167 -71.1000 180° South 190 219 14,300 1,080 Climbing Montreal Center
04:12PM 47.8667 -71.1000 180° South 200 230 15,400 840 Climbing Montreal Center
04:13PM 47.8167 -71.1167 193° South 200 230 16,000 240 Climbing Montreal Center
04:14PM 47.7500 -71.1167 180° South 230 265 16,000  Level Montreal Center
04:15PM 47.6833 -71.1333 190° South 240 276 16,000  Level Montreal Center
04:16PM 47.6167 -71.1500 190° South 250 288 16,100  Climbing Montreal Center
04:17PM 47.5500 -71.1667 190° South 250 288 16,100  Level Montreal Center
04:18PM 47.4833 -71.1667 180° South 250 288 16,100  Level Montreal Center
04:19PM 47.4000 -71.1833 188° South 250 288 16,100  Level Montreal Center
04:20PM 47.3333 -71.1833 180° South 250 288 16,100  Level Montreal Center
04:21PM 47.2667 -71.1833 180° South 250 288 16,100  Level Montreal Center
04:22PM 47.2000 -71.2167 199° South 240 276 16,100  Level Montreal Center
04:23PM 47.1333 -71.2333 190° South 240 276 16,100  Level Montreal Center
04:24PM 47.0667 -71.2333 180° South 240 276 16,100  Level Montreal Center
04:25PM 47.0000 -71.2333 180° South 240 276 16,100  Level Montreal Center
04:26PM 46.9333 -71.2500 190° South 240 276 16,100  Level Montreal Center
04:27PM 46.8667 -71.2500 180° South 240 276 16,100  Level Montreal Center
04:28PM 46.8167 -71.3000 214° Southwest 210 242 16,100  Level Montreal Center
04:29PM 46.7833 -71.3833 240° Southwest 210 242 16,100  Level Montreal Center
04:30PM 46.7333 -71.4333 214° Southwest 210 242 16,100  Level Montreal Center
04:32PM 46.6667 -71.5667 234° Southwest 210 242 16,100  Level Montreal Center
04:33PM 46.6167 -71.6167 214° Southwest 210 242 16,100 -60 Level Montreal Center
04:34PM 46.5667 -71.6667 215° Southwest 210 242 16,000 -60 Descending Montreal Center
04:35PM 46.5333 -71.7500 240° Southwest 210 242 16,000  Level Montreal Center
04:36PM 46.4833 -71.8000 215° Southwest 210 242 16,000  Level Montreal Center
04:37PM 46.4333 -71.8500 215° Southwest 210 242 16,000  Level Montreal Center
04:38PM 46.4000 -71.9333 240° Southwest 210 242 16,000  Level Montreal Center
04:39PM 46.3500 -71.9833 215° Southwest 210 242 16,000  Level Montreal Center
04:40PM 46.3333 -72.0333 244° Southwest 210 242 16,000  Level Montreal Center
04:41PM 46.2833 -72.1167 229° Southwest 210 242 16,000  Level Montreal Center
04:42PM 46.2333 -72.1667 215° Southwest 220 253 16,000  Level Montreal Center
04:43PM 46.2000 -72.2333 234° Southwest 220 253 16,000  Level Montreal Center
04:44PM 46.1500 -72.2833 215° Southwest 220 253 16,000  Level Montreal Center
04:45PM 46.1167 -72.3667 240° Southwest 220 253 16,000  Level Montreal Center
04:46PM 46.0667 -72.4167 215° Southwest 220 253 16,000  Level Montreal Center
04:47PM 46.0167 -72.4833 223° Southwest 220 253 16,000  Level Montreal Center
04:48PM 45.9833 -72.5333 226° Southwest 220 253 16,000 -480 Level Montreal Center
04:49PM 45.9500 -72.6167 240° Southwest 240 276 15,100 -960 Descending Montreal Center
04:50PM 45.9000 -72.7000 229° Southwest 240 276 14,100 -1,020 Descending Montreal Center
04:51PM 45.8500 -72.7667 223° Southwest 250 288 13,100 -1,020 Descending Montreal Center
04:52PM 45.8000 -72.8500 229° Southwest 250 288 12,100 -1,020 Descending Montreal Center
04:53PM 45.7500 -72.9000 215° Southwest 240 276 11,100 -1,020 Descending Montreal Center
04:54PM 45.7000 -73.0000 234° Southwest 240 276 10,100 -1,020 Descending Montreal Center
04:55PM 45.7000 -73.0667 270° West 240 276 9,100 -1,020 Descending Montreal Center
04:56PM 45.6833 -73.1833 258° West 240 276 8,100 -1,020 Descending Montreal Center
04:57PM 45.6833 -73.2500 270° West 230 265 7,100 -1,020 Descending Montreal Center
04:58PM 45.6833 -73.3500 270° West 220 253 6,100 -960 Descending Montreal Center
04:59PM 45.7333 -73.4000 325° Northwest 230 265 5,200 -720 Descending Montreal Center
05:00PM 45.7833 -73.4500 325° Northwest 220 253 4,700 -540 Descending Montreal Center
05:01PM 45.8167 -73.3667 60° Northeast 250 288 4,200 -540 Descending Montreal Center
05:02PM 45.7500 -73.3333 161° South 250 288 3,700 -540 Descending Montreal Center
05:03PM 45.7000 -73.3833 215° Southwest 230 265 3,200 -360 Descending Montreal Center
05:04PM 45.6667 -73.4500 234° Southwest 230 265 3,000 -120 Descending Montreal Center
05:05PM 45.6167 -73.5167 223° Southwest 220 253 3,000 -120 Level Montreal Center
05:06PM 45.5667 -73.5667 215° Southwest 220 253 2,800 -660 Descending Montreal Center
05:07PM 45.5333 -73.6167 226° Southwest 190 219 1,700 -960 Descending Montreal Center
05:08PM 45.5000 -73.6667 226° Southwest 140 161 900 -720 Descending Montreal Center
05:09PM 45.4667 -73.7000 215° Southwest 110 127 300 -600 Descending Montreal Center